Time;durP1;ratioP1;P1;durP2;ratioP2;P2;SDS_P1;SDS_P2;PMS_P1;PMS_P2;Temp;Humidity;BMP_temperature;BMP_pressure;BME280_temperature;BME280_humidity;BME280_pressure;Samples;Min_cycle;Max_cycle;Signal;HPM_P1;HPM_P2
2023/07/08 00:00:00;;;;;;;;;;;23.60;61.00;;;;;;3990313;29;19979;-48
2023/07/08 00:02:41;;;;;;;;;;;23.60;60.10;;;;;;4008373;29;19939;-49
2023/07/08 00:05:23;;;;;;;;;;;23.60;60.20;;;;;;4010766;29;20398;-47
2023/07/08 00:08:05;;;;;;;;;;;23.60;60.30;;;;;;4011489;29;19950;-47
2023/07/08 00:10:46;;;;;;;;;;;23.60;60.30;;;;;;4007291;29;19936;-52
2023/07/08 00:13:27;;;;;;;;;;;23.60;60.40;;;;;;4006816;29;19931;-52
2023/07/08 00:16:10;;;;;;;;;;;23.60;60.50;;;;;;4010613;29;20355;-49
2023/07/08 00:18:51;;;;;;;;;;;23.60;60.60;;;;;;4010574;29;19935;-50
2023/07/08 00:21:32;;;;;;;;;;;23.50;60.50;;;;;;4007970;29;19938;-52
2023/07/08 00:24:14;;;;;;;;;;;23.50;61.50;;;;;;4009640;29;19935;-52
2023/07/08 00:26:54;;;;;;;;;;;23.50;60.70;;;;;;3999906;29;21873;-47
2023/07/08 00:29:35;;;;;;;;;;;23.50;60.70;;;;;;3995404;29;20420;-51
2023/07/08 00:32:16;;;;;;;;;;;23.50;60.70;;;;;;3983260;29;20005;-49
2023/07/08 00:34:57;;;;;;;;;;;23.50;60.70;;;;;;4010389;29;19931;-47
2023/07/08 00:37:39;;;;;;;;;;;23.50;60.70;;;;;;4010750;29;19939;-51
2023/07/08 00:40:22;;;;;;;;;;;23.40;61.60;;;;;;3999546;29;19935;-51
2023/07/08 00:43:04;;;;;;;;;;;23.40;60.70;;;;;;3980893;29;20708;-47
2023/07/08 00:45:49;;;;;;;;;;;23.40;60.90;;;;;;3983263;29;19936;-48
2023/07/08 00:48:42;;;;;;;;;;;23.40;60.90;;;;;;3995096;29;20080;-51
2023/07/08 00:51:23;;;;;;;;;;;23.40;60.90;;;;;;4000612;29;19935;-47
2023/07/08 00:54:04;;;;;;;;;;;23.40;60.90;;;;;;4004829;29;19947;-50
2023/07/08 00:56:48;;;;;;;;;;;23.40;61.60;;;;;;4004857;29;20288;-50
2023/07/08 00:59:30;;;;;;;;;;;23.40;60.80;;;;;;3994057;29;19954;-52
2023/07/08 01:02:13;;;;;;;;;;;23.40;60.90;;;;;;4008930;29;19930;-48
2023/07/08 01:04:57;;;;;;;;;;;23.30;60.90;;;;;;4014999;29;19951;-51
2023/07/08 01:07:38;;;;;;;;;;;23.30;60.90;;;;;;3998106;29;19931;-48
2023/07/08 01:10:20;;;;;;;;;;;23.30;61.80;;;;;;4003284;29;20390;-52
2023/07/08 01:13:04;;;;;;;;;;;23.30;60.90;;;;;;3992067;29;19932;-50
2023/07/08 01:15:47;;;;;;;;;;;23.30;60.90;;;;;;4014543;29;19931;-49
2023/07/08 01:18:28;;;;;;;;;;;23.30;60.80;;;;;;3989203;29;19935;-50
2023/07/08 01:21:23;;;;;;;;;;;23.30;60.90;;;;;;4004551;29;19952;-49
2023/07/08 01:24:08;;;;;;;;;;;23.30;61.70;;;;;;4015113;29;19930;-48
2023/07/08 01:26:49;;;;;;;;;;;23.20;60.60;;;;;;4016542;29;20030;-48
2023/07/08 01:29:30;;;;;;;;;;;23.20;60.80;;;;;;4015517;29;19931;-47
2023/07/08 01:32:13;;;;;;;;;;;23.20;61.00;;;;;;4015464;29;19939;-46
2023/07/08 01:35:00;;;;;;;;;;;23.20;61.10;;;;;;4000072;29;20077;-48
2023/07/08 01:37:43;;;;;;;;;;;23.10;61.10;;;;;;3978376;29;19959;-46
2023/07/08 01:40:28;;;;;;;;;;;23.10;61.10;;;;;;3990717;29;20052;-47
2023/07/08 01:43:09;;;;;;;;;;;23.10;61.10;;;;;;4000617;29;19980;-50
2023/07/08 01:45:51;;;;;;;;;;;23.10;61.30;;;;;;4010121;29;19935;-49
2023/07/08 01:48:34;;;;;;;;;;;23.10;61.40;;;;;;4004210;29;19935;-49
2023/07/08 01:51:15;;;;;;;;;;;23.10;61.50;;;;;;4002766;29;19935;-46
2023/07/08 01:53:56;;;;;;;;;;;23.10;61.50;;;;;;4016102;29;20395;-47
2023/07/08 01:56:38;;;;;;;;;;;23.10;61.60;;;;;;3992947;29;19951;-46
2023/07/08 01:59:18;;;;;;;;;;;23.10;61.60;;;;;;4000244;29;21270;-48
2023/07/08 02:01:59;;;;;;;;;;;23.10;61.60;;;;;;3990529;29;20379;-47
2023/07/08 02:04:40;;;;;;;;;;;23.00;62.60;;;;;;4003453;29;19935;-49
2023/07/08 02:07:21;;;;;;;;;;;23.00;61.50;;;;;;4012247;29;20287;-48
2023/07/08 02:10:02;;;;;;;;;;;23.00;61.70;;;;;;4001113;29;20072;-47
2023/07/08 02:12:44;;;;;;;;;;;23.00;61.70;;;;;;3987008;29;20064;-48
2023/07/08 02:15:26;;;;;;;;;;;23.00;61.70;;;;;;3998231;29;20051;-51
2023/07/08 02:18:07;;;;;;;;;;;23.00;61.90;;;;;;3997975;29;19936;-49
2023/07/08 02:20:48;;;;;;;;;;;23.00;61.90;;;;;;4000617;29;20056;-47
2023/07/08 02:23:29;;;;;;;;;;;23.00;61.90;;;;;;3999539;29;19935;-46
2023/07/08 02:26:12;;;;;;;;;;;23.00;62.00;;;;;;4010685;29;19931;-46
2023/07/08 02:28:55;;;;;;;;;;;23.00;62.00;;;;;;3999516;29;20068;-46
2023/07/08 02:31:36;;;;;;;;;;;23.00;62.10;;;;;;4013021;29;19935;-46
2023/07/08 02:34:17;;;;;;;;;;;22.90;62.00;;;;;;4012481;29;20388;-50
2023/07/08 02:36:57;;;;;;;;;;;22.90;62.00;;;;;;4000183;29;19946;-50
2023/07/08 02:39:38;;;;;;;;;;;22.90;61.80;;;;;;4002327;29;19950;-48
2023/07/08 02:42:18;;;;;;;;;;;22.90;61.70;;;;;;4007154;29;19931;-47
2023/07/08 02:45:01;;;;;;;;;;;22.90;61.80;;;;;;4013045;29;19935;-46
2023/07/08 02:47:43;;;;;;;;;;;22.90;61.80;;;;;;3988761;29;19980;-48
2023/07/08 02:50:24;;;;;;;;;;;22.80;61.80;;;;;;4000311;29;19932;-46
2023/07/08 02:53:05;;;;;;;;;;;22.80;61.90;;;;;;3999942;29;20032;-48
2023/07/08 02:55:47;;;;;;;;;;;22.80;62.90;;;;;;4004203;29;19931;-47
2023/07/08 02:58:28;;;;;;;;;;;22.80;62.00;;;;;;4011725;29;19935;-47
2023/07/08 03:01:10;;;;;;;;;;;22.80;62.10;;;;;;4007757;29;19935;-45
2023/07/08 03:03:51;;;;;;;;;;;22.80;62.10;;;;;;4003602;29;19931;-47
2023/07/08 03:06:32;;;;;;;;;;;22.80;62.10;;;;;;4011520;29;19935;-49
2023/07/08 03:09:14;;;;;;;;;;;22.80;62.30;;;;;;4000074;29;19930;-49
2023/07/08 03:11:55;;;;;;;;;;;22.80;62.40;;;;;;3966747;29;20428;-47
2023/07/08 03:14:36;;;;;;;;;;;22.70;62.30;;;;;;4008797;29;19934;-49
2023/07/08 03:17:19;;;;;;;;;;;22.70;62.20;;;;;;3999610;29;20402;-51
2023/07/08 03:20:00;;;;;;;;;;;22.70;62.30;;;;;;3999358;29;19938;-49
2023/07/08 03:22:42;;;;;;;;;;;22.70;62.20;;;;;;3986057;29;19935;-51
2023/07/08 03:25:25;;;;;;;;;;;22.70;62.30;;;;;;4011361;29;19935;-48
2023/07/08 03:28:07;;;;;;;;;;;22.70;62.50;;;;;;3998028;29;19931;-46
2023/07/08 03:30:52;;;;;;;;;;;22.70;62.50;;;;;;3999023;29;20008;-49
2023/07/08 03:33:35;;;;;;;;;;;22.70;62.50;;;;;;4000457;29;19951;-49
2023/07/08 03:36:22;;;;;;;;;;;22.70;62.50;;;;;;3986881;29;19930;-48
2023/07/08 03:39:03;;;;;;;;;;;22.70;62.60;;;;;;3983091;29;19936;-49
2023/07/08 03:41:44;;;;;;;;;;;22.70;62.50;;;;;;3996754;29;20296;-51
2023/07/08 03:44:25;;;;;;;;;;;22.70;63.60;;;;;;3983212;29;19930;-50
2023/07/08 03:47:06;;;;;;;;;;;22.60;62.70;;;;;;3974659;29;19931;-47
2023/07/08 03:49:49;;;;;;;;;;;22.60;62.50;;;;;;3973989;29;20292;-50
2023/07/08 03:52:30;;;;;;;;;;;22.60;62.40;;;;;;3996313;29;20007;-47
2023/07/08 03:55:11;;;;;;;;;;;22.60;62.20;;;;;;3984013;29;19931;-51
2023/07/08 03:57:52;;;;;;;;;;;22.60;62.40;;;;;;3987554;29;19943;-50
2023/07/08 04:00:34;;;;;;;;;;;22.60;62.60;;;;;;4009749;29;19931;-47
2023/07/08 04:03:15;;;;;;;;;;;22.60;62.70;;;;;;3987177;29;19931;-50
2023/07/08 04:05:57;;;;;;;;;;;22.60;62.70;;;;;;4011331;29;19931;-48
2023/07/08 04:08:40;;;;;;;;;;;22.60;62.80;;;;;;3992461;29;20303;-48
2023/07/08 04:11:22;;;;;;;;;;;22.60;62.80;;;;;;3985048;29;19938;-48
2023/07/08 04:14:02;;;;;;;;;;;22.60;62.80;;;;;;3995307;29;19935;-47
2023/07/08 04:16:45;;;;;;;;;;;22.60;62.90;;;;;;4003751;29;19935;-48
2023/07/08 04:19:26;;;;;;;;;;;22.60;62.90;;;;;;4011483;29;19931;-50
2023/07/08 04:22:08;;;;;;;;;;;22.60;63.00;;;;;;4011387;29;19938;-49
2023/07/08 04:24:49;;;;;;;;;;;22.60;63.10;;;;;;4003379;29;19939;-46
2023/07/08 04:27:30;;;;;;;;;;;22.60;63.10;;;;;;3998182;29;21018;-47
2023/07/08 04:30:16;;;;;;;;;;;22.60;63.10;;;;;;4002098;29;20050;-47
2023/07/08 04:32:56;;;;;;;;;;;22.60;63.10;;;;;;3996039;29;20292;-48
2023/07/08 04:35:38;;;;;;;;;;;22.60;63.10;;;;;;3996261;29;20009;-46
2023/07/08 04:38:21;;;;;;;;;;;22.60;63.10;;;;;;4011576;29;19947;-46
2023/07/08 04:41:02;;;;;;;;;;;22.60;63.10;;;;;;4008712;29;20012;-46
2023/07/08 04:43:43;;;;;;;;;;;22.60;63.00;;;;;;4009561;29;19947;-47
2023/07/08 04:46:28;;;;;;;;;;;22.60;63.00;;;;;;3996471;29;20015;-46
2023/07/08 04:49:10;;;;;;;;;;;22.60;63.00;;;;;;3995655;29;19931;-47
2023/07/08 04:51:51;;;;;;;;;;;22.60;62.80;;;;;;3991421;29;19935;-47
2023/07/08 04:54:33;;;;;;;;;;;22.60;62.80;;;;;;3997196;29;20312;-55
2023/07/08 04:57:16;;;;;;;;;;;22.70;62.80;;;;;;4006082;29;19939;-51
2023/07/08 04:59:57;;;;;;;;;;;22.70;62.70;;;;;;4002167;29;19935;-49
2023/07/08 05:02:38;;;;;;;;;;;22.70;62.60;;;;;;3995881;29;20009;-52
2023/07/08 05:05:19;;;;;;;;;;;22.70;62.70;;;;;;3995034;29;19931;-50
2023/07/08 05:08:00;;;;;;;;;;;22.70;62.60;;;;;;4009096;29;20399;-50
2023/07/08 05:10:43;;;;;;;;;;;22.70;62.60;;;;;;4011161;29;19979;-47
2023/07/08 05:13:23;;;;;;;;;;;22.70;62.60;;;;;;4000033;29;20008;-48
2023/07/08 05:16:05;;;;;;;;;;;22.70;62.60;;;;;;4003740;29;19932;-47
2023/07/08 05:18:46;;;;;;;;;;;22.70;62.50;;;;;;3995990;29;19931;-48
2023/07/08 05:21:33;;;;;;;;;;;22.70;62.50;;;;;;3981950;29;20004;-48
2023/07/08 05:24:14;;;;;;;;;;;22.70;62.60;;;;;;3993911;29;19930;-47
2023/07/08 05:26:56;;;;;;;;;;;22.80;62.70;;;;;;4007452;29;19931;-52
2023/07/08 05:29:36;;;;;;;;;;;22.80;62.90;;;;;;4011005;29;19931;-47
2023/07/08 05:32:18;;;;;;;;;;;22.90;62.70;;;;;;3994508;29;20067;-49
2023/07/08 05:34:59;;;;;;;;;;;22.90;62.50;;;;;;3985901;29;19935;-47
2023/07/08 05:37:40;;;;;;;;;;;23.00;62.30;;;;;;4011307;29;19939;-46
2023/07/08 05:40:21;;;;;;;;;;;23.10;61.70;;;;;;4012906;29;19931;-46
2023/07/08 05:43:03;;;;;;;;;;;23.20;61.50;;;;;;4001383;29;20391;-47
2023/07/08 05:45:44;;;;;;;;;;;23.30;61.60;;;;;;4013453;29;19931;-46
2023/07/08 05:48:34;;;;;;;;;;;23.30;62.30;;;;;;4012910;29;20052;-46
2023/07/08 05:51:15;;;;;;;;;;;23.30;62.50;;;;;;4012607;29;20320;-46
2023/07/08 05:53:55;;;;;;;;;;;23.40;63.00;;;;;;4014798;29;19935;-48
2023/07/08 05:56:36;;;;;;;;;;;23.40;63.00;;;;;;4007641;29;20287;-47
2023/07/08 05:59:18;;;;;;;;;;;23.40;62.80;;;;;;4014751;29;19931;-47
2023/07/08 06:01:59;;;;;;;;;;;23.40;62.60;;;;;;3998822;29;19935;-48
2023/07/08 06:04:40;;;;;;;;;;;23.40;62.70;;;;;;4019528;29;20682;-48
2023/07/08 06:07:21;;;;;;;;;;;23.40;62.70;;;;;;4017298;29;19947;-50
2023/07/08 06:10:02;;;;;;;;;;;23.40;62.80;;;;;;4015514;29;20004;-48
2023/07/08 06:12:43;;;;;;;;;;;23.40;63.10;;;;;;4018301;29;19936;-47
2023/07/08 06:15:25;;;;;;;;;;;23.40;63.40;;;;;;4002144;29;19935;-48
2023/07/08 06:18:06;;;;;;;;;;;23.50;64.20;;;;;;4003003;29;20799;-48
2023/07/08 06:20:51;;;;;;;;;;;23.50;63.30;;;;;;4012673;29;19972;-46
2023/07/08 06:23:32;;;;;;;;;;;23.50;63.30;;;;;;4017588;29;19935;-46
2023/07/08 06:26:13;;;;;;;;;;;23.60;63.10;;;;;;4002984;29;19936;-46
2023/07/08 06:28:53;;;;;;;;;;;23.60;62.90;;;;;;4002691;29;19931;-45
2023/07/08 06:31:35;;;;;;;;;;;23.70;62.80;;;;;;4002959;29;20020;-46
2023/07/08 06:34:16;;;;;;;;;;;23.70;62.50;;;;;;4003162;29;19935;-45
2023/07/08 06:36:57;;;;;;;;;;;23.80;62.40;;;;;;4010697;29;19931;-45
2023/07/08 06:39:37;;;;;;;;;;;23.80;62.30;;;;;;4005118;29;20315;-47
2023/07/08 06:42:21;;;;;;;;;;;23.80;62.30;;;;;;4002869;29;19932;-47
2023/07/08 06:45:11;;;;;;;;;;;23.90;62.30;;;;;;4001867;29;19935;-48
2023/07/08 06:47:53;;;;;;;;;;;23.90;62.10;;;;;;3993069;29;19981;-46
2023/07/08 06:50:34;;;;;;;;;;;24.00;61.90;;;;;;4017326;29;19976;-48
2023/07/08 06:53:15;;;;;;;;;;;24.10;61.60;;;;;;4005832;29;19950;-48
2023/07/08 06:55:56;;;;;;;;;;;24.10;61.50;;;;;;4017423;29;19934;-47
2023/07/08 06:58:37;;;;;;;;;;;24.20;61.40;;;;;;4010005;29;20045;-47
2023/07/08 07:01:18;;;;;;;;;;;24.20;61.00;;;;;;4017410;29;19931;-52
2023/07/08 07:04:01;;;;;;;;;;;24.30;60.90;;;;;;4017307;29;20012;-51
2023/07/08 07:06:42;;;;;;;;;;;24.30;61.10;;;;;;4016767;29;19949;-49
2023/07/08 07:09:23;;;;;;;;;;;24.40;60.70;;;;;;4016531;29;20364;-49
2023/07/08 07:12:03;;;;;;;;;;;24.40;60.40;;;;;;3990944;29;19984;-49
2023/07/08 07:14:44;;;;;;;;;;;24.50;60.30;;;;;;4002433;29;19935;-47
2023/07/08 07:17:27;;;;;;;;;;;24.50;60.10;;;;;;4002075;29;19936;-47
2023/07/08 07:20:10;;;;;;;;;;;24.50;60.00;;;;;;3991171;29;19934;-46
2023/07/08 07:22:51;;;;;;;;;;;24.50;59.90;;;;;;4001229;29;19931;-45
2023/07/08 07:25:32;;;;;;;;;;;24.50;59.80;;;;;;4001707;29;20027;-49
2023/07/08 07:28:13;;;;;;;;;;;24.60;59.80;;;;;;4001729;29;19933;-48
2023/07/08 07:30:57;;;;;;;;;;;24.60;59.70;;;;;;4001562;29;19931;-46
2023/07/08 07:33:38;;;;;;;;;;;24.60;60.30;;;;;;4000472;29;20019;-46
2023/07/08 07:36:21;;;;;;;;;;;24.60;59.50;;;;;;4001877;29;19932;-48
2023/07/08 07:39:01;;;;;;;;;;;24.60;59.40;;;;;;4001520;29;19930;-52
2023/07/08 07:41:42;;;;;;;;;;;24.70;59.40;;;;;;4001827;29;20061;-47
2023/07/08 07:44:24;;;;;;;;;;;24.70;59.50;;;;;;4001902;29;19945;-47
2023/07/08 07:47:05;;;;;;;;;;;24.70;59.40;;;;;;3989464;29;19945;-47
2023/07/08 07:49:46;;;;;;;;;;;24.70;59.50;;;;;;4001713;29;19944;-49
2023/07/08 07:52:28;;;;;;;;;;;24.70;59.50;;;;;;4001445;29;19936;-49
2023/07/08 07:55:09;;;;;;;;;;;24.70;59.60;;;;;;4000812;29;19931;-47
2023/07/08 07:57:50;;;;;;;;;;;24.70;59.50;;;;;;4014215;29;19935;-48
2023/07/08 08:00:31;;;;;;;;;;;24.70;59.50;;;;;;4016700;29;20506;-48
2023/07/08 08:03:12;;;;;;;;;;;24.70;59.60;;;;;;4016623;29;19950;-51
2023/07/08 08:05:53;;;;;;;;;;;24.70;59.50;;;;;;4008859;29;20027;-48
2023/07/08 08:08:35;;;;;;;;;;;24.70;59.60;;;;;;4001741;29;19950;-51
2023/07/08 08:11:19;;;;;;;;;;;24.70;59.70;;;;;;4001819;29;19935;-49
2023/07/08 08:14:00;;;;;;;;;;;24.70;59.70;;;;;;4001939;29;20019;-50
2023/07/08 08:16:41;;;;;;;;;;;24.70;59.60;;;;;;4001715;29;19932;-47
2023/07/08 08:19:23;;;;;;;;;;;24.70;59.70;;;;;;4000791;29;19936;-48
2023/07/08 08:22:04;;;;;;;;;;;24.70;59.50;;;;;;4002188;29;19935;-46
2023/07/08 08:24:46;;;;;;;;;;;24.70;59.50;;;;;;4001157;29;20292;-46
2023/07/08 08:27:27;;;;;;;;;;;24.80;59.50;;;;;;4014319;29;20070;-47
2023/07/08 08:30:09;;;;;;;;;;;24.80;59.40;;;;;;4015929;29;20031;-49
2023/07/08 08:32:49;;;;;;;;;;;24.80;59.40;;;;;;4015346;29;19935;-48
2023/07/08 08:35:30;;;;;;;;;;;24.80;59.40;;;;;;4012690;29;19931;-50
2023/07/08 08:38:11;;;;;;;;;;;24.80;60.10;;;;;;4011591;29;19931;-48
2023/07/08 08:40:53;;;;;;;;;;;24.80;59.30;;;;;;4004942;29;19980;-46
2023/07/08 08:43:36;;;;;;;;;;;24.90;59.30;;;;;;4000953;29;20380;-46
2023/07/08 08:46:24;;;;;;;;;;;24.90;60.00;;;;;;4005548;29;19931;-46
2023/07/08 08:49:08;;;;;;;;;;;25.00;59.20;;;;;;4005508;29;20275;-47
2023/07/08 08:51:49;;;;;;;;;;;25.00;59.20;;;;;;4000942;29;19931;-50
2023/07/08 08:54:31;;;;;;;;;;;25.00;59.10;;;;;;4000507;29;19996;-47
2023/07/08 08:57:20;;;;;;;;;;;25.00;59.90;;;;;;4010677;29;20399;-47
2023/07/08 09:00:01;;;;;;;;;;;25.00;59.10;;;;;;4005578;29;19935;-48
2023/07/08 09:02:45;;;;;;;;;;;25.10;59.20;;;;;;4014786;29;20284;-49
2023/07/08 09:05:26;;;;;;;;;;;25.10;59.30;;;;;;4005324;29;19935;-48
2023/07/08 09:08:13;;;;;;;;;;;25.10;59.00;;;;;;4015676;29;19934;-50
2023/07/08 09:10:58;;;;;;;;;;;25.20;59.00;;;;;;4015485;29;19992;-55
2023/07/08 09:13:40;;;;;;;;;;;25.20;58.80;;;;;;4018584;29;20015;-48
2023/07/08 09:16:26;;;;;;;;;;;25.30;58.80;;;;;;4018833;29;19939;-49
2023/07/08 09:19:10;;;;;;;;;;;25.30;59.50;;;;;;4018733;29;19935;-51
2023/07/08 09:21:57;;;;;;;;;;;25.30;58.70;;;;;;4023487;29;19934;-51
2023/07/08 09:24:40;;;;;;;;;;;25.30;59.40;;;;;;4024215;29;19934;-48
2023/07/08 09:27:20;;;;;;;;;;;25.30;58.50;;;;;;4023904;29;19976;-52
2023/07/08 09:30:03;;;;;;;;;;;25.40;58.60;;;;;;4012973;29;19930;-49
2023/07/08 09:32:44;;;;;;;;;;;25.40;58.40;;;;;;4024363;29;19935;-50
2023/07/08 09:35:27;;;;;;;;;;;25.50;58.90;;;;;;4024427;29;19938;-49
2023/07/08 09:38:08;;;;;;;;;;;25.50;58.30;;;;;;4024429;29;19935;-50
2023/07/08 09:40:53;;;;;;;;;;;25.50;58.30;;;;;;4024543;29;20000;-51
2023/07/08 09:43:36;;;;;;;;;;;25.60;59.00;;;;;;3992648;29;20400;-48
2023/07/08 09:46:20;;;;;;;;;;;25.60;58.20;;;;;;4018167;29;19962;-52
2023/07/08 09:49:09;;;;;;;;;;;25.60;58.00;;;;;;4018226;29;20068;-48
2023/07/08 09:51:51;;;;;;;;;;;25.60;57.90;;;;;;4018037;29;19940;-51
2023/07/08 09:54:32;;;;;;;;;;;25.70;57.90;;;;;;4018024;29;20040;-49
2023/07/08 09:57:27;;;;;;;;;;;25.70;57.80;;;;;;4018557;29;20069;-49
2023/07/08 10:00:11;;;;;;;;;;;25.70;57.80;;;;;;4017889;29;19935;-48
2023/07/08 10:02:55;;;;;;;;;;;25.80;57.80;;;;;;4007246;29;19931;-48
2023/07/08 10:05:38;;;;;;;;;;;25.80;57.60;;;;;;4007087;29;19935;-49
2023/07/08 10:08:20;;;;;;;;;;;25.80;57.60;;;;;;4018819;29;20345;-48
2023/07/08 10:11:04;;;;;;;;;;;25.90;57.70;;;;;;4017683;29;19932;-48
2023/07/08 10:13:46;;;;;;;;;;;25.90;57.60;;;;;;4013430;29;19935;-48
2023/07/08 10:16:33;;;;;;;;;;;25.90;57.40;;;;;;4018394;29;19939;-49
2023/07/08 10:19:17;;;;;;;;;;;25.90;57.60;;;;;;4004205;29;20012;-47
2023/07/08 10:22:05;;;;;;;;;;;26.00;57.40;;;;;;4003602;29;19985;-52
2023/07/08 10:25:04;;;;;;;;;;;26.00;57.20;;;;;;4003332;29;20341;-53
2023/07/08 10:27:50;;;;;;;;;;;26.00;57.30;;;;;;4003035;29;19936;-48
2023/07/08 10:30:32;;;;;;;;;;;26.10;57.20;;;;;;4003757;29;20296;-48
2023/07/08 10:33:19;;;;;;;;;;;26.10;57.00;;;;;;4003388;29;19968;-48
2023/07/08 10:36:17;;;;;;;;;;;26.10;57.70;;;;;;4008546;29;20319;-48
2023/07/08 10:39:13;;;;;;;;;;;26.20;57.00;;;;;;4017483;29;19930;-48
2023/07/08 10:41:58;;;;;;;;;;;26.20;56.80;;;;;;4018010;29;19935;-52
2023/07/08 10:44:43;;;;;;;;;;;26.20;56.70;;;;;;4017628;29;20147;-50
2023/07/08 10:47:33;;;;;;;;;;;26.30;56.60;;;;;;4009040;29;19931;-49
2023/07/08 10:50:22;;;;;;;;;;;26.30;56.60;;;;;;4006752;29;19931;-51
2023/07/08 10:53:11;;;;;;;;;;;26.30;56.50;;;;;;4003389;29;20008;-49
2023/07/08 10:55:55;;;;;;;;;;;26.40;56.50;;;;;;4003171;29;20372;-48
2023/07/08 10:58:40;;;;;;;;;;;26.40;56.50;;;;;;4007049;29;19935;-51
2023/07/08 11:01:29;;;;;;;;;;;26.40;56.50;;;;;;4018343;29;19935;-48
2023/07/08 11:04:18;;;;;;;;;;;26.40;56.30;;;;;;4018032;29;20526;-49
2023/07/08 11:07:01;;;;;;;;;;;26.40;57.00;;;;;;4018116;29;20291;-48
2023/07/08 11:09:50;;;;;;;;;;;26.50;56.10;;;;;;4002618;29;20399;-50
2023/07/08 11:12:34;;;;;;;;;;;26.50;56.20;;;;;;4002401;29;20399;-49
2023/07/08 11:15:19;;;;;;;;;;;26.50;56.90;;;;;;4003999;29;20299;-52
2023/07/08 11:18:04;;;;;;;;;;;26.50;56.20;;;;;;4012163;29;19935;-48
2023/07/08 11:20:46;;;;;;;;;;;26.60;56.30;;;;;;4007907;29;19931;-49
2023/07/08 11:23:30;;;;;;;;;;;26.60;56.20;;;;;;4017692;29;19947;-50
2023/07/08 11:26:16;;;;;;;;;;;26.60;56.10;;;;;;4017572;29;20284;-49
2023/07/08 11:28:58;;;;;;;;;;;26.60;56.10;;;;;;4017655;29;19931;-46
2023/07/08 11:31:39;;;;;;;;;;;26.70;56.00;;;;;;4018096;29;20061;-48
2023/07/08 11:34:21;;;;;;;;;;;26.70;55.70;;;;;;4002451;29;19931;-51
2023/07/08 11:37:02;;;;;;;;;;;26.70;55.70;;;;;;4009902;29;20044;-49
2023/07/08 11:39:44;;;;;;;;;;;26.70;55.70;;;;;;4017527;29;20019;-47
2023/07/08 11:42:30;;;;;;;;;;;26.70;55.60;;;;;;4017384;29;19991;-46
2023/07/08 11:45:25;;;;;;;;;;;26.80;55.80;;;;;;4002500;29;19931;-48
2023/07/08 11:48:07;;;;;;;;;;;26.80;55.60;;;;;;4011951;29;19946;-51
2023/07/08 11:50:49;;;;;;;;;;;26.80;55.40;;;;;;4017283;29;20291;-49
2023/07/08 11:53:47;;;;;;;;;;;26.90;56.30;;;;;;4017495;29;19935;-46
2023/07/08 11:56:29;;;;;;;;;;;26.90;55.40;;;;;;4010338;29;19977;-47
2023/07/08 11:59:16;;;;;;;;;;;26.90;55.20;;;;;;4016673;29;20009;-47
2023/07/08 12:02:02;;;;;;;;;;;26.90;55.10;;;;;;4013411;29;19935;-47
2023/07/08 12:04:57;;;;;;;;;;;27.00;55.10;;;;;;4014609;29;19934;-47
2023/07/08 12:07:41;;;;;;;;;;;27.00;55.20;;;;;;4005403;29;20010;-48
2023/07/08 12:10:27;;;;;;;;;;;27.00;55.30;;;;;;4008205;29;19934;-45
2023/07/08 12:13:12;;;;;;;;;;;27.00;55.00;;;;;;4012527;29;19935;-50
2023/07/08 12:15:54;;;;;;;;;;;27.10;55.10;;;;;;4019450;29;19951;-49
2023/07/08 12:18:37;;;;;;;;;;;27.10;55.00;;;;;;4024068;29;19931;-46
2023/07/08 12:21:18;;;;;;;;;;;27.10;54.90;;;;;;3994437;29;19934;-49
2023/07/08 12:24:03;;;;;;;;;;;27.10;54.80;;;;;;4017133;29;19934;-48
2023/07/08 12:26:44;;;;;;;;;;;27.20;54.90;;;;;;4017094;29;19999;-49
2023/07/08 12:29:26;;;;;;;;;;;27.20;55.00;;;;;;4016897;29;19930;-51
2023/07/08 12:32:12;;;;;;;;;;;27.20;54.80;;;;;;4013880;29;19931;-48
2023/07/08 12:34:53;;;;;;;;;;;27.30;54.80;;;;;;4016596;29;20494;-48
2023/07/08 12:37:34;;;;;;;;;;;27.30;54.40;;;;;;4016427;29;19931;-53
2023/07/08 12:40:15;;;;;;;;;;;27.30;54.30;;;;;;4016711;29;19931;-49
2023/07/08 12:42:57;;;;;;;;;;;27.30;53.90;;;;;;4016693;29;19950;-48
2023/07/08 12:45:38;;;;;;;;;;;27.40;54.20;;;;;;4016619;29;20456;-50
2023/07/08 12:48:20;;;;;;;;;;;27.40;54.00;;;;;;4016318;29;19935;-51
2023/07/08 12:51:01;;;;;;;;;;;27.40;54.80;;;;;;4005359;29;19931;-52
2023/07/08 12:53:42;;;;;;;;;;;27.40;54.10;;;;;;4016652;29;19935;-49
2023/07/08 12:56:24;;;;;;;;;;;27.50;53.60;;;;;;4015308;29;19935;-50
2023/07/08 12:59:06;;;;;;;;;;;27.50;53.80;;;;;;4010737;29;20019;-52
2023/07/08 13:01:48;;;;;;;;;;;27.50;53.70;;;;;;4008377;29;20284;-50
2023/07/08 13:04:30;;;;;;;;;;;27.60;53.60;;;;;;4015802;29;20049;-49
2023/07/08 13:07:18;;;;;;;;;;;27.50;53.60;;;;;;4016334;29;19934;-49
2023/07/08 13:10:00;;;;;;;;;;;27.60;53.20;;;;;;4016464;29;20015;-50
2023/07/08 13:12:41;;;;;;;;;;;27.60;53.50;;;;;;4004738;29;20264;-52
2023/07/08 13:15:23;;;;;;;;;;;27.60;53.40;;;;;;4005967;29;19935;-50
2023/07/08 13:18:04;;;;;;;;;;;27.70;52.90;;;;;;4016537;29;19931;-51
2023/07/08 13:20:49;;;;;;;;;;;27.70;52.60;;;;;;4016373;29;19962;-52
2023/07/08 13:23:31;;;;;;;;;;;27.80;52.90;;;;;;4016796;29;19935;-50
2023/07/08 13:26:15;;;;;;;;;;;27.80;53.60;;;;;;4006697;29;19935;-46
2023/07/08 13:29:00;;;;;;;;;;;27.80;52.70;;;;;;4015723;29;19930;-46
2023/07/08 13:31:41;;;;;;;;;;;27.80;52.80;;;;;;4015580;29;19935;-48
2023/07/08 13:34:24;;;;;;;;;;;27.80;52.90;;;;;;4016199;29;19931;-46
2023/07/08 13:37:10;;;;;;;;;;;27.80;53.00;;;;;;4015882;29;20575;-47
2023/07/08 13:39:50;;;;;;;;;;;27.90;53.90;;;;;;4003944;29;20549;-45
2023/07/08 13:42:31;;;;;;;;;;;27.90;52.90;;;;;;4015537;29;19975;-46
2023/07/08 13:45:14;;;;;;;;;;;27.90;52.60;;;;;;4014728;29;20084;-46
2023/07/08 13:47:59;;;;;;;;;;;28.00;52.80;;;;;;4015730;29;19984;-48
2023/07/08 13:50:43;;;;;;;;;;;28.00;52.50;;;;;;4015610;29;20370;-46
2023/07/08 13:53:27;;;;;;;;;;;28.00;52.60;;;;;;4015396;29;19935;-46
2023/07/08 13:56:12;;;;;;;;;;;28.00;52.70;;;;;;4015533;29;20013;-45
2023/07/08 13:58:53;;;;;;;;;;;28.10;52.60;;;;;;4018245;29;19931;-47
2023/07/08 14:01:35;;;;;;;;;;;28.10;52.40;;;;;;4016895;29;20370;-49
2023/07/08 14:04:17;;;;;;;;;;;28.10;52.30;;;;;;4002911;29;19981;-45
2023/07/08 14:06:58;;;;;;;;;;;28.10;52.40;;;;;;4003500;29;20387;-47
2023/07/08 14:09:39;;;;;;;;;;;28.10;53.00;;;;;;4003810;29;19941;-48
2023/07/08 14:12:21;;;;;;;;;;;28.20;52.50;;;;;;3991721;29;20040;-49
2023/07/08 14:15:04;;;;;;;;;;;28.20;52.30;;;;;;4008248;29;20417;-45
2023/07/08 14:17:44;;;;;;;;;;;28.20;52.10;;;;;;4018354;29;20378;-47
2023/07/08 14:20:27;;;;;;;;;;;28.20;52.30;;;;;;4016746;29;19963;-46
2023/07/08 14:23:09;;;;;;;;;;;28.30;52.50;;;;;;4017175;29;20322;-46
2023/07/08 14:25:52;;;;;;;;;;;28.30;51.70;;;;;;4017819;29;19952;-47
2023/07/08 14:28:33;;;;;;;;;;;28.30;51.60;;;;;;4014640;29;19931;-46
2023/07/08 14:31:15;;;;;;;;;;;28.40;51.70;;;;;;4017776;29;19935;-49
2023/07/08 14:34:00;;;;;;;;;;;28.40;52.00;;;;;;4014662;29;19930;-50
2023/07/08 14:36:41;;;;;;;;;;;28.40;51.90;;;;;;4017544;29;19935;-46
2023/07/08 14:39:22;;;;;;;;;;;28.40;52.50;;;;;;4003154;29;19936;-48
2023/07/08 14:42:06;;;;;;;;;;;28.50;51.60;;;;;;4012841;29;19931;-46
2023/07/08 14:44:48;;;;;;;;;;;28.50;51.80;;;;;;4003238;29;19944;-46
2023/07/08 14:47:29;;;;;;;;;;;28.50;51.70;;;;;;4008779;29;19931;-48
2023/07/08 14:50:14;;;;;;;;;;;28.60;50.70;;;;;;4018241;29;19935;-47
2023/07/08 14:52:55;;;;;;;;;;;28.60;50.70;;;;;;4003109;29;20011;-45
2023/07/08 14:55:36;;;;;;;;;;;28.60;50.00;;;;;;4003238;29;20012;-47
2023/07/08 14:58:22;;;;;;;;;;;28.60;50.20;;;;;;4017523;29;20344;-46
2023/07/08 15:01:10;;;;;;;;;;;28.70;50.60;;;;;;4006416;29;20068;-45
2023/07/08 15:03:51;;;;;;;;;;;28.70;50.20;;;;;;4020067;29;19931;-48
2023/07/08 15:06:32;;;;;;;;;;;28.70;49.20;;;;;;4017507;29;19935;-49
2023/07/08 15:09:13;;;;;;;;;;;28.70;49.70;;;;;;4016871;29;20403;-46
2023/07/08 15:11:54;;;;;;;;;;;28.80;49.40;;;;;;4016217;29;19935;-47
2023/07/08 15:14:36;;;;;;;;;;;28.80;49.10;;;;;;4017894;29;19931;-45
2023/07/08 15:17:17;;;;;;;;;;;28.80;49.40;;;;;;4007661;29;19934;-47
2023/07/08 15:19:58;;;;;;;;;;;28.80;49.40;;;;;;4014189;29;20363;-54
2023/07/08 15:22:39;;;;;;;;;;;28.80;49.60;;;;;;4005961;29;20025;-52
2023/07/08 15:25:20;;;;;;;;;;;28.80;49.10;;;;;;4010255;29;19934;-48
2023/07/08 15:28:02;;;;;;;;;;;28.90;48.80;;;;;;4002256;29;20394;-49
2023/07/08 15:30:45;;;;;;;;;;;28.90;49.00;;;;;;3990770;29;19946;-48
2023/07/08 15:33:26;;;;;;;;;;;28.90;49.10;;;;;;4007337;29;19984;-47
2023/07/08 15:36:07;;;;;;;;;;;28.90;49.10;;;;;;4015593;29;19935;-50
2023/07/08 15:38:48;;;;;;;;;;;29.00;48.90;;;;;;4017898;29;20402;-46
2023/07/08 15:41:30;;;;;;;;;;;28.90;49.20;;;;;;4009512;29;20035;-48
2023/07/08 15:44:12;;;;;;;;;;;29.00;49.10;;;;;;4009379;29;20413;-47